Latest Coastal Weather Observations for Coles Point

IDS60701

Issued at 11:15 pm CST Friday 18 April 2014 (issued every 10 minutes, with the page automatically refreshed every 10 minutes)

About coastal observations | Map of coastal stations | Coastal observations for SA | Marine services | Other Formats
Station Details ID: 018191 Name: COLES POINT Lat: -34.37 Lon: 135.37 Height: 28.0 m
Data from the previous 72 hours. | See also: Recent months at Coles Point
Date/Time
CST
Temp

°C
Wind Pressure Rain
since 9am
mm
Weather Cloud Vis
km
Sea
Height
m
Swell
Dir
 
Speed
knots
Gust
knots
hPa Trend Height
m
Period
s
Dir
18/11:00pm 11.0 ESE 8 8 1023.6 - - - - - - - - -
18/10:30pm 11.4 ESE 7 8 1023.7 - - - - - - - - -
18/10:00pm 11.6 ESE 6 7 1023.9 - - - - - - - - -
18/09:30pm 11.7 ESE 6 7 1023.9 - - - - - - - - -
18/09:00pm 12.7 E 5 6 1023.9 - - - - - - - - -
18/08:30pm 12.7 ESE 5 6 1023.8 - - - - - - - - -
18/08:00pm 13.2 SE 5 6 1023.8 - - - - - - - - -
18/07:30pm 14.8 SE 5 6 1023.6 - - - - - - - - -
18/07:00pm 15.0 SE 6 7 1023.6 - - - - - - - - -
18/06:30pm 15.5 SSE 6 7 1023.3 - - - - - - - - -
18/06:00pm 16.2 S 7 9 1023.1 - - - - - - - - -
18/05:30pm 17.4 S 9 12 1023.0 - - - - - - - - -
18/05:00pm 18.0 S 11 14 1022.9 - - - - - - - - -
18/04:30pm 18.4 - - - 1022.7 - - - - - - - - -
18/04:00pm 18.9 S 13 16 1022.8 - 0.0 - - - - - - -
18/03:30pm 19.3 S 13 16 1022.7 - 0.0 - - - - - - -
18/03:00pm 20.3 S 12 16 1022.7 - 0.0 - - - - - - -
18/02:30pm 20.1 S 13 17 1022.6 - 0.0 - - - - - - -
18/02:00pm 20.1 SSW 15 18 1022.6 - 0.0 - - - - - - -
18/01:30pm 20.6 S 11 17 1022.6 - 0.0 - - - - - - -
18/01:00pm 20.6 S 10 15 1023.0 - 0.0 - - - - - - -
18/12:30pm 20.4 SW 11 14 1023.2 - 0.0 - - - - - - -
18/12:00pm 20.6 SSW 13 16 1023.2 - 0.0 - - - - - - -
18/11:30am 21.0 S 12 15 1023.3 - 0.0 - - - - - - -
18/11:00am 19.8 SW 11 14 1023.4 - 0.0 - - - - - - -
18/10:30am 19.4 SW 8 11 1023.5 - 0.0 - - - - - - -
18/10:00am 19.1 S 8 11 1023.7 - 0.0 - - - - - - -
18/09:30am 18.0 S 9 13 1023.6 - 0.0 - - - - - - -
18/09:00am 18.1 S 10 12 1023.4 - - - - - - - - -
18/08:30am 17.4 S 6 9 1023.1 - - - - - - - - -
18/08:00am 16.8 S 5 7 1022.9 - - - - - - - - -
18/07:30am 15.2 CALM 0 0 1022.4 - - - - - - - - -
18/07:00am 15.7 S 2 4 1022.1 - - - - - - - - -
18/06:30am 15.8 S 2 2 1021.7 - - - - - - - - -
18/06:00am 15.8 S 4 5 1021.6 - - Recent precip. - - - - - -
18/05:30am 16.6 SSW 5 8 1021.4 - - - - - - - - -
18/05:00am 16.6 NW 5 7 1020.8 - - - - - - - - -
18/04:30am 16.2 NNW 6 7 1020.6 - - - - - - - - -
18/04:00am 15.7 NW 5 7 1020.7 - - - - - - - - -
18/03:30am 16.0 NW 4 6 1020.7 - - - - - - - - -
18/03:00am 16.5 NW 5 6 1020.7 - 0.2 - - - - - - -
18/02:30am 16.7 NW 6 8 1020.6 - - - - - - - - -
18/02:00am 16.4 NW 4 5 1020.6 - - - - - - - - -
18/01:30am 15.9 NW 4 5 1020.6 - - - - - - - - -
18/01:00am 16.1 NW 5 6 1020.5 - - - - - - - - -
18/12:30am 16.3 NW 5 8 1020.4 - - - - - - - - -
18/12:00am 15.4 NW 6 7 1020.5 - - Recent precip. - - - - - -
 
Date/Time
CST
Temp

°C
Wind Pressure Rain
since 9am
mm
Weather Cloud Vis
km
Sea
Height
m
Swell
Dir
 
Speed
knots
Gust
knots
hPa Trend Height
m
Period
s
Dir
17/11:30pm 15.7 NNW 5 7 1020.7 - - - - - - - - -
17/11:00pm 15.7 W 3 5 1020.9 - - - - - - - - -
17/10:30pm 15.6 NW 4 6 1021.0 - - - - - - - - -
17/10:00pm 16.0 NW 5 7 1021.1 - - - - - - - - -
17/09:30pm 15.8 NW 5 7 1020.9 - - - - - - - - -
17/09:00pm 15.5 NW 7 9 1021.1 - 0.0 - - - - - - -
17/08:30pm 15.4 NW 5 7 1021.0 - - - - - - - - -
17/08:00pm 15.6 NW 6 8 1020.7 - - - - - - - - -
17/07:30pm 15.4 NW 6 8 1020.6 - - - - - - - - -
17/07:00pm 15.3 NNW 7 8 1020.3 - - - - - - - - -
17/06:30pm 15.4 NNW 7 8 1019.9 - - - - - - - - -
17/06:00pm 16.1 NNW 8 11 1019.7 - - - - - - - - -
17/05:30pm 16.6 NNW 8 9 1019.5 - - - - - - - - -
17/05:00pm 17.4 NNW 8 10 1019.4 - - - - - - - - -
17/04:30pm 17.4 NW 7 9 1019.6 - - - - - - - - -
17/04:00pm 17.3 NW 7 9 1019.9 - - - - - - - - -
17/03:30pm 17.9 NW 8 11 1019.9 - - - - - - - - -
17/03:00pm 17.9 NW 8 11 1019.8 - - - - - - - - -
17/02:30pm 18.6 NW 8 10 1019.9 - - - - - - - - -
17/02:00pm 19.2 NW 8 10 1020.1 - - - - - - - - -
17/01:30pm 19.2 NW 7 8 1020.0 - - - - - - - - -
17/01:00pm 19.5 NW 7 9 1020.5 - - - - - - - - -
17/12:30pm 19.4 NNW 6 8 1020.8 - - - - - - - - -
17/12:00pm 18.6 NW 7 9 1021.3 - - - - - - - - -
17/11:30am 16.6 NNW 7 9 1021.6 - 0.0 - - - - - - -
17/11:00am 15.4 NNW 6 8 1022.1 - 0.0 - - - - - - -
17/10:30am 14.9 NW 5 7 1022.1 - 0.0 - - - - - - -
17/10:00am 14.8 N 4 5 1022.1 - 0.0 - - - - - - -
17/09:30am 14.2 - - - 1022.1 - - - - - - - - -
17/09:00am 14.0 NW 3 5 1022.0 - - - - - - - - -
17/08:30am 13.9 NW 4 5 1021.8 - - - - - - - - -
17/07:30am 12.9 NNE 6 7 1020.9 - - - - - - - - -
17/07:00am 12.7 NNE 7 8 1020.6 - - - - - - - - -
17/06:30am 12.3 ENE 4 5 1020.3 - - - - - - - - -
17/06:00am 12.9 NE 4 5 1020.3 - - - - - - - - -
17/05:00am 12.2 NNE 8 9 1020.2 - - - - - - - - -
17/04:00am 12.8 - - - 1020.1 - - - - - - - - -
17/03:30am 13.3 NE 8 8 1019.9 - - - - - - - - -
17/03:00am 13.3 ENE 4 5 1020.1 - - - - - - - - -
17/02:30am 13.1 ENE 5 6 1020.3 - - - - - - - - -
17/02:00am 12.8 ENE 6 7 1020.6 - - - - - - - - -
17/01:00am 12.1 NE 6 7 1020.5 - 0.0 - - - - - - -
17/12:30am 12.6 NE 5 6 1020.6 - 0.0 - - - - - - -
17/12:00am 13.1 NE 5 5 1020.7 - 0.0 - - - - - - -
 
Date/Time
CST
Temp

°C
Wind Pressure Rain
since 9am
mm
Weather Cloud Vis
km
Sea
Height
m
Swell
Dir
 
Speed
knots
Gust
knots
hPa Trend Height
m
Period
s
Dir
16/11:30pm 12.9 NE 6 7 1020.9 - 0.0 - - - - - - -
16/11:00pm 14.1 NE 6 7 1021.3 - 0.0 - - - - - - -
16/10:30pm 14.1 NE 2 4 1021.3 - 0.0 - - - - - - -
16/10:00pm 14.1 NE 4 5 1021.3 - 0.0 - - - - - - -
16/09:30pm 15.1 ENE 4 5 1021.0 - 0.0 - - - - - - -
16/09:00pm 15.1 NW 1 2 1020.9 - 0.0 - - - - - - -
16/08:30pm 15.3 CALM 0 0 1020.8 - 0.0 - - - - - - -
16/08:00pm 15.1 NW 3 4 1020.8 - 0.0 - - - - - - -
16/07:30pm 15.4 NW 2 3 1020.6 - 0.0 - - - - - - -
16/07:00pm 16.5 NW 4 4 1020.4 - 0.0 - - - - - - -
16/06:30pm 16.9 WNW 4 5 1020.0 - 0.0 - - - - - - -
16/06:00pm 17.3 WNW 4 6 1019.7 - 0.0 - - - - - - -
16/05:30pm 18.3 WNW 5 7 1019.6 - 0.0 - - - - - - -
16/05:00pm 18.8 WNW 7 9 1019.6 - 0.0 - - - - - - -
16/04:30pm 19.3 WNW 7 10 1019.6 - 0.0 - - - - - - -
16/04:00pm 19.7 W 7 11 1019.7 - 0.0 - - - - - - -
16/03:30pm 20.2 W 6 8 1019.5 - 0.0 - - - - - - -
16/03:00pm 19.6 W 7 10 1019.7 - 0.0 - - - - - - -
16/02:30pm 19.7 W 8 11 1019.7 - 0.0 - - - - - - -
16/02:00pm 19.5 WNW 8 11 1019.8 - 0.0 - - - - - - -
16/01:30pm 19.3 WNW 7 10 1019.9 - 0.0 - - - - - - -
16/01:00pm 18.8 WNW 8 11 1020.5 - 0.0 - - - - - - -
16/12:30pm 18.3 WNW 8 11 1020.4 - 0.0 - - - - - - -
16/12:00pm 18.1 NNW 10 12 1020.5 - 0.0 - - - - - - -
16/11:30am 19.3 NW 11 14 1020.5 - 0.0 - - - - - - -
16/11:00am 18.9 NW 9 13 1020.5 - 0.0 - - - - - - -
16/10:30am 19.0 NNW 9 12 1020.3 - 0.0 - - - - - - -
16/10:00am 17.0 NNE 6 8 1020.4 - 0.0 - - - - - - -
16/09:30am 15.8 NE 7 9 1020.8 - 0.0 - - - - - - -
16/09:00am 13.2 NE 7 9 1021.0 - 0.0 - - - - - - -
16/08:30am 12.1 NE 11 13 1020.7 - 0.0 - - - - - - -
16/08:00am 11.2 NE 10 11 1020.7 - 0.0 - - - - - - -
16/07:30am 10.4 NE 11 12 1020.1 - 0.0 - - - - - - -
16/07:00am 11.6 NE 12 12 1019.8 - 0.0 - - - - - - -
16/06:30am 11.0 NE 10 11 1019.9 - 0.0 - - - - - - -
16/06:00am 10.5 NE 11 11 1019.7 - 0.0 - - - - - - -
16/05:30am 12.3 NE 9 10 1019.7 - 0.0 - - - - - - -
16/05:00am 12.4 NNE 9 10 1019.7 - 0.0 - - - - - - -
16/04:30am 12.7 NNE 8 9 1020.2 - 0.0 - - - - - - -
16/04:00am 12.8 NE 8 9 1020.0 - 0.0 - - - - - - -
16/03:30am 13.3 NNE 7 8 1020.2 - 0.0 - - - - - - -
16/03:00am 13.9 NE 8 9 1020.1 - 0.0 - - - - - - -
16/02:30am 13.2 NE 7 8 1020.5 - 0.0 - - - - - - -
16/02:00am 13.4 NE 6 7 1021.0 - 0.0 - - - - - - -
16/01:30am 12.9 NE 5 7 1021.2 - 0.0 - - - - - - -
16/01:00am 13.2 ENE 5 6 1021.5 - 0.0 - - - - - - -
16/12:30am 12.2 ENE 4 4 1021.6 - 0.0 - - - - - - -
16/12:00am 11.8 E 5 6 1021.6 - 0.0 - - - - - - -
 
Date/Time
CST
Temp

°C
Wind Pressure Rain
since 9am
mm
Weather Cloud Vis
km
Sea
Height
m
Swell
Dir
 
Speed
knots
Gust
knots
hPa Trend Height
m
Period
s
Dir
15/11:30pm 12.9 ENE 5 5 1021.7 - 0.0 - - - - - - -

Other Formats:

Comma delimited format used in spreadsheet applications
http://www.bom.gov.au/fwo/IDS60701/IDS60701.94658.axf

JavaScript Object Notation format (JSON) in row-major order
http://www.bom.gov.au/fwo/IDS60701/IDS60701.94658.json